NWS Home NWS Lubbock West Texas Mesonet Latest Conditions as of 0127 AM, Sun Oct 22, 2017

Latest   N   C   S   Daily Sum   3hrΔ   24hrΔ   Soil Data 
Site Map   24hr Precip   72hr Precip   Google Plot


Station Time of Last Temp Dew Pt. RH Wind Direction Wind Speed Wind Gust Max Wind Max Temp Min Temp Max RH Min RH Altimeter 1HR Rain Today's Rain Solar Rad
Abernathy 5ENE  01:20 AM 45 37 75% N1011 12 mph 360° @ 1245 AM 46 45 77 73 30.15" 0 0 0
Aiken 3WSW  01:20 AM 42 35 75% N77 10 mph 348° @ 1258 AM 45 42 75 68 30.15" 0 0 0
Amarillo 15NNW   01:20 AM 43 32 63% W55 7 mph 135° @ 1208 AM 48 43 69 51 30.18" 0 0 0
Amarillo 7SSE  01:20 AM 41 34 76% NW77 7 mph 316° @ 0120 AM 43 40 79 65 30.18" 0 0 0
Amarillo 9NNE  01:20 AM 37 35 92% S33 4 mph 169° @ 0102 AM 39 37 95 87 30.18" 0 0 0
Amherst 1NE  01:20 AM 44 37 76% NW910 10 mph 329° @ 1235 AM 46 44 76 71 30.17" 0 0 0
Andrews 2E  01:20 AM 51 37 59% N911 11 mph 347° @ 0120 AM 58 51 59 46 30.13" 0 0 0
Anton 6SSW  01:20 AM 43 36 78% NW67 9 mph 307° @ 1230 AM 45 43 78 73 30.16" 0 0 0
Aspermont 3NE  01:20 AM 58 41 54% N89 28 mph 355° @ 1210 AM 61 58 59 52 30.07" 0 0 0
Big Bend NP - Persimmon Gap  01:20 AM 70 64 81% NE1011 16 mph 37° @ 1226 AM 73 70 81 75 30.07" 0 0 0
Big Lake 1WNW  01:20 AM 66 63 89% W33 13 mph 334° @ 1218 AM 69 66 90 84 30.07" 0 0 0
Bootleg 11WNW  01:20 AM 41 30 63% N66 7 mph 10° @ 1259 AM 45 40 69 54 30.21" 0 0 0
Boys Ranch 1WSW  01:20 AM 42 32 67% W56 8 mph 299° @ 0116 AM 42 38 81 67 30.20" 0 0 0
Brownfield 2S  01:20 AM 52 35 51% N1114 18 mph 1° @ 1220 AM 55 52 51 48 30.14" 0 0 0
Canadian 6E  01:20 AM 43 33 69% W78 9 mph 318° @ 1220 AM 46 42 71 64 30.10" 0 0 0
Caprock Canyons State Park  01:20 AM 55 32 42% N68 14 mph 356° @ 1252 AM 56 54 46 41 30.14" 0 0 0
Childress 2NNE  01:20 AM 51 34 53% NW911 14 mph 341° @ 1205 AM 56 51 53 45 30.09" 0 0 0
Clarendon 2WSW  01:20 AM 45 32 62% N67 8 mph 18° @ 1220 AM 47 45 62 57 30.13" 0 0 0
Claude 12SW  01:20 AM 45 34 65% N911 14 mph 9° @ 1202 AM 46 45 65 59 30.15" 0 0 0
Clyde 2WNW  01:20 AM 56 55 95% NW67 16 mph 35° @ 1201 AM 58 56 95 86 30.05" 0 0.01 0
Colorado City 5NW  01:20 AM 61 41 48% NE1419 28 mph 25° @ 1254 AM 66 61 51 43 30.09" 0 0 0
Coyanosa 2N  01:20 AM 62 43 48% N78 13 mph 347° @ 0117 AM 67 60 54 42 30.10" 0 0 0
Crowell 1E  01:20 AM 56 43 62% N1011 20 mph 2° @ 1201 AM 59 56 64 58 30.07" 0 0 0
Dell City  01:20 AM 51 41 67% NW99 10 mph 303° @ 0118 AM 54 50 71 58 30.15" 0 0 0
Denver City 7WNW  01:20 AM 45 39 80% NW89 14 mph 5° @ 1225 AM 48 45 80 71 30.16" 0 0 0
Dimmitt 2NE  01:20 AM 39 34 82% NW78 11 mph 333° @ 1255 AM 41 39 84 80 30.18" 0 0 0
Dora NM 2SW  01:20 AM 46 34 63% N45 7 mph 3° @ 1235 AM 46 44 72 63 30.20" 0 0 0
Dozier 3W  01:20 AM 51 34 53% N1013 15 mph 1° @ 0112 AM 54 51 53 46 30.11" 0 0 0
Endee NM 2SW  01:20 AM 39 35 84% S34 5 mph 157° @ 1234 AM 41 37 91 79 30.21" 0 0 0
Floydada 2NNE  01:20 AM 47 33 59% N911 14 mph 7° @ 1205 AM 51 47 61 49 30.13" 0 0 0
Fluvanna 3WNW  01:20 AM 56 35 46% N1319 24 mph 8° @ 1225 AM 59 56 48 45 30.11" 0 0 0
Fort Chadbourne  01:20 AM 63 50 62% N1015 21 mph 23° @ 1242 AM 74 63 67 52 30.06" 0 0 0
Fort Lancaster  01:20 AM 66 64 93% W34 6 mph 300° @ 0114 AM 70 66 94 87 30.04" 0 0 0
Fort Lewis CO  01:20 AM 37 0 21% NE45 28 mph 297° @ 1202 AM 42 35 23 16 30.36" 0 0 0
Fort McKavett  01:20 AM 66 63 92% W33 8 mph 222° @ 1220 AM 67 65 93 89 30.02" 0 0 0
Friona 2NE  01:20 AM 40 35 84% NW12 7 mph 329° @ 1225 AM 43 40 84 80 30.19" 0 0 0
Gail 2ESE  01:20 AM 56 35 46% N1115 18 mph 18° @ 0105 AM 57 55 59 46 30.11" 0 0 0
Goodlett 3W  01:20 AM 52 38 59% NW1011 16 mph 335° @ 1225 AM 57 52 59 49 30.06" 0 0 0
Goodnight  01:20 AM 43 33 69% NW77 13 mph 328° @ 1229 AM 47 43 69 57 30.15" 0 0 0
Graham 5SSW  01:05 AM 52 40 64% N1213 19 mph 5° @ 1210 AM 55 52 66 59 30.12" 0 0 0
Guadalupe Mtns Natl Park  01:20 AM 57 31 38% NW910 11 mph 295° @ 0117 AM 57 54 44 38 30.24" 0 0 0
Guthrie 10WSW  12:50 AM 54 38 54% N1012 17 mph 352° @ 1205 AM 58 54 55 52 30.06" 0 0 0
Happy 1E  01:20 AM 41 34 75% NW89 9 mph 337° @ 1235 AM 42 41 77 72 30.17" 0 0 0
Hart 3N  01:20 AM 40 35 83% NW67 10 mph 347° @ 1230 AM 43 40 83 77 30.17" 0 0 0
Haskell 1NW  01:20 AM 59 51 76% NW712 24 mph 346° @ 0110 AM 61 59 86 76 30.06" 0 0 0
Hereford 2NW  01:20 AM 41 31 70% N34 4 mph 339° @ 0120 AM 43 41 70 66 30.18" 0 0 0
Hobbs NM 5NW  01:20 AM 49 37 63% N1012 13 mph 6° @ 1245 AM 52 49 63 58 30.19" 0 0 0
Jayton 1SSE  01:20 AM 55 37 51% NW710 20 mph 15° @ 1210 AM 61 55 52 47 30.10" 0 0 0
Junction 1SSW  01:20 AM 64 62 91% SW33 5 mph 213° @ 0115 AM 66 62 96 90 29.99" 0 0 0
Knox City 3NW  01:20 AM 59 42 54% N915 23 mph 349° @ 1215 AM 61 59 67 54 30.06" 0 0 0
Lake Alan Henry 1NW  01:20 AM 54 36 50% N78 13 mph 19° @ 1221 AM 60 54 50 43 30.11" 0 0 0
Lamesa 2SE  01:20 AM 54 39 59% N1014 15 mph 3° @ 1235 AM 57 54 59 54 30.13" 0 0 0
Levelland 4S  01:20 AM 45 35 68% NW89 13 mph 350° @ 1205 AM 50 45 68 57 30.16" 0 0 0
Lomax 1SSE  01:20 AM 61 41 48% N1214 14 mph 8° @ 0120 AM 63 61 55 48 30.11" 0 0 0
Lubbock 3WNW TTU  01:20 AM 47 37 69% NW57 9 mph 343° @ 1205 AM 51 47 69 59 30.15" 0 0 0
McCamey 1SSW  01:20 AM 66 46 49% N77 9 mph 348° @ 0114 AM 68 64 75 47 30.07" 0 0 0
McLean 1E  01:20 AM 44 32 62% NW1113 13 mph 331° @ 1230 AM 47 44 63 56 30.11" 0 0 0
Memphis 1NE  01:20 AM 53 33 47% N1014 15 mph 338° @ 1240 AM 55 53 48 45 30.10" 0 0 0
Menard 2NW   01:20 AM 66 64 93% SE12 6 mph 297° @ 1231 AM 68 66 93 83 30.00" 0 0 0
Mertzon 3NNE  01:20 AM 71 65 82% SW810 21 mph 254° @ 1234 AM 72 70 82 79 30.04" 0 0 0
Morton 1ENE  01:20 AM 42 36 78% NW67 8 mph 324° @ 1255 AM 45 42 78 73 30.17" 0 0 0
Muleshoe 2SSW  01:20 AM 38 35 90% W56 7 mph 282° @ 0100 AM 40 38 91 85 30.18" 0 0 0
New Home  01:20 AM 52 34 51% NE79 13 mph 21° @ 1215 AM 54 52 52 50 30.15" 0 0 0
Northfield 1S  12:45 AM 51 36 56% NW79 12 mph 339° @ 1215 AM 54 51 56 50 30.09" 0 0 0
O'Donnell 1N  01:20 AM 50 40 68% N810 15 mph 19° @ 1255 AM 52 50 68 61 30.14" 0 0 0
Odell 4ENE  01:20 AM 55 48 80% NW67 12 mph 347° @ 1204 AM 57 55 80 74 30.06" 0 0 0
Olton 6S  01:20 AM 41 35 79% N89 11 mph 351° @ 1240 AM 43 41 79 77 30.16" 0 0 0
Paducah 10SW  01:20 AM 52 37 58% NW1013 15 mph 332° @ 1240 AM 55 52 60 56 30.09" 0 0 0
Palo Duro Canyon SP Floor  01:20 AM 45 36 69% NW57 8 mph 300° @ 0112 AM 46 44 72 67 30.16" 0 0 0
Palo Duro Canyon State Park Rim  01:20 AM 46 32 59% NW67 12 mph 344° @ 1248 AM 49 46 59 52 30.17" 0 0 0
Pampa 2E  01:20 AM 42 33 72% NW24 8 mph 313° @ 0105 AM 44 41 73 65 30.14" 0 0 0
Panhandle 1SSW  01:20 AM 43 33 69% NW77 10 mph 351° @ 1248 AM 48 43 69 55 30.16" 0 0 0
Plains 3N  01:20 AM 46 38 75% N1012 13 mph 4° @ 1230 AM 49 46 76 65 30.16" 0 0 0
Plainview 1S  01:20 AM 49 35 58% N610 13 mph 5° @ 1215 AM 50 49 60 56 30.15" 0 0 0
Post 1NE  01:20 AM 53 36 54% N79 20 mph 1° @ 1205 AM 58 53 54 43 30.12" 0 0 0
Ralls 1SE  01:20 AM 49 32 51% N811 16 mph 10° @ 1210 AM 53 49 51 43 30.14" 0 0 0
Reese Center  01:20 AM 45 37 75% N78 12 mph 357° @ 1205 AM 48 45 75 67 30.15" 0 0 0
Roaring Springs 3N  01:20 AM 53 36 54% N1419 19 mph 339° @ 0120 AM 54 53 55 53 30.11" 0 0 0
San Angelo 7NW  01:20 AM 72 62 72% W812 16 mph 270° @ 1215 AM 73 71 73 69 30.00" 0 0 0
Seagraves 1SW  01:20 AM 49 40 69% N1114 15 mph 4° @ 1255 AM 51 49 74 69 30.15" 0 0 0
Seminole 2NNE  01:20 AM 51 36 57% N1316 18 mph 7° @ 0105 AM 54 51 57 54 30.14" 0 0 0
Seymour 3NW  01:20 AM 60 53 81% NW913 26 mph 353° @ 1205 AM 61 60 81 75 30.02" 0 0 0
Sierra Blanca 1SSE  01:20 AM 67 30 25% NW67 19 mph 300° @ 1223 AM 69 67 26 24 30.20" 0 0 0
Silverton 7ESE  01:20 AM 45 32 63% N89 10 mph 345° @ 1245 AM 48 43 66 55 30.15" 0 0 0
Slaton 2NE  01:20 AM 52 34 50% N710 16 mph 349° @ 1210 AM 55 52 51 48 30.13" 0 0 0
Snyder 3E  01:20 AM 58 43 57% N1218 25 mph 24° @ 1205 AM 62 58 58 52 30.08" 0 0 0
Snyder 3SSW  01:20 AM 59 44 57% N1014 26 mph 35° @ 1208 AM 63 59 57 48 30.09" 0 0 0
Spur 1W  01:20 AM 56 33 43% N1014 22 mph 20° @ 1205 AM 58 56 43 42 30.09" 0 0 0
St. Lawrence 5SW  01:20 AM 62 42 49% NW1115 15 mph 328° @ 0120 AM 70 62 49 30 30.07" 0 0 0
Stamford 5ESE  01:20 AM 61 55 81% N1113 20 mph 340° @ 1250 AM 61 61 92 78 30.06" 0 0 0
Sterling City 4WSW  01:20 AM 65 44 46% NW1116 17 mph 328° @ 0107 AM 69 65 52 45 30.07" 0 0 0
Stinnett 1NNW  01:20 AM 43 31 61% NW1111 13 mph 348° @ 1235 AM 46 43 62 56 30.17" 0 0 0
Sundown 8WSW  01:20 AM 43 37 80% N89 14 mph 354° @ 1250 AM 46 43 83 73 30.16" 0 0 0
Sweetwater 11SW   01:20 AM 59 47 66% NE1217 21 mph 30° @ 1254 AM 63 59 76 64 30.09" 0 0 0
Tahoka 3NNE  01:20 AM 46 37 69% N88 13 mph 3° @ 1211 AM 52 46 70 55 30.14" 0 0 0
Tarzan 2WNW  01:20 AM 57 39 51% N911 17 mph 353° @ 1204 AM 61 57 56 46 30.13" 0 0 0
Tatum NM 2SW  01:20 AM 42 36 80% N1011 11 mph 2° @ 0115 AM 44 41 84 77 30.18" 0 0 0
Throckmorton 1SW  01:20 AM 60 56 86% NW1013 19 mph 335° @ 0110 AM 61 60 93 85 30.03" 0 0 0
Tulia 2ENE  01:20 AM 40 37 88% NW89 10 mph 312° @ 0115 AM 41 39 91 88 30.16" 0 0 0
Turkey 2WSW  01:20 AM 50 35 56% NW79 14 mph 329° @ 1220 AM 54 49 60 50 30.13" 0 0 0
Umbarger 3NNE  01:20 AM 38 33 82% NW78 8 mph 309° @ 0116 AM 42 37 85 71 30.18" 0 0 0
Vigo Park  01:20 AM 46 32 58% N67 10 mph 3° @ 1219 AM 46 42 70 57 30.16" 0 0 0
Wall 2E  01:20 AM 71 65 81% W1013 16 mph 255° @ 1241 AM 72 70 83 78 30.01" 0 0 0
Weinert 2NNE  01:20 AM 59 50 72% N1113 20 mph 24° @ 1209 AM 61 59 82 72 30.05" 0 0 0
Welch  01:20 AM 49 42 75% N810 12 mph 360° @ 1259 AM 53 49 76 66 30.15" 0 0 0
White River Lake 6NW  01:20 AM 54 31 41% N1318 33 mph 359° @ 1215 AM 57 54 43 36 30.11" 0 0 0
Wolfforth 6SSW  01:20 AM 47 37 67% N89 11 mph 345° @ 1210 AM 50 47 67 60 30.15" 0 0 0

West Texas Mesonet Home   Site Map/Menu  NWS Lubbock Soil Data  Daily Summary Page  24hr Precip  72hr Precip  Google Plot